Weather at Peterhead Heliport

Public forecast

Using degrees Celsius for public forecast. Weather courtesy of forecast.io.

Closest aviation weather report (METAR) to Peterhead Heliport

Closest report is Aberdeen Dyce Airport, 21.9 nm (40.5 km) SSW. Retrieved 2021/10/21 04:20 UTC (0 seconds ago):

EGPD 210420Z AUTO 33012KT 9999 BKN037 05/01 Q0996

Closest aviation forecast (TAF) to Peterhead Heliport

Closest forecast is Aberdeen Dyce Airport, 21.9 nm (40.5 km) SSW. Retrieved 2021-10-21 00:00 UTC (4 hours ago):

TAF EGPD 202259Z 2100/2124 31014KT 9999 FEW020 SCT030 TEMPO 2100/2124 6000 SHRA BKN014 TEMPO 2100/2112 32019G32KT PROB30 TEMPO 2100/2106 2500 +SHRAGS BKN008 BKN018CB BECMG 2112/2115 25012KT PROB40 TEMPO 2112/2120 27018G30KT TEMPO 2120/2124 28020G34KT PROB30 TEMPO 2121/2124 3000 +SHRAGS BKN009 BKN020CB